Time;durP1;ratioP1;P1;durP2;ratioP2;P2;SDS_P1;SDS_P2;PMS_P1;PMS_P2;Temp;Humidity;BMP_temperature;BMP_pressure;BME280_temperature;BME280_humidity;BME280_pressure;Samples;Min_cycle;Max_cycle;Signal;HPM_P1;HPM_P2
2021/05/11 00:02:01;;;;;;;5.72;2.05;;;486.70;1331.20;;;;;;5074090;28;20115;-68
2021/05/11 00:04:27;;;;;;;4.47;1.98;;;486.80;1305.60;;;;;;5073799;28;20021;-74
2021/05/11 00:06:53;;;;;;;6.80;2.15;;;486.70;1305.60;;;;;;5073833;28;20064;-68
2021/05/11 00:09:19;;;;;;;10.20;1.92;;;486.70;1331.20;;;;;;5073711;28;20017;-74
2021/05/11 00:11:45;;;;;;;6.85;2.45;;;486.70;1305.60;;;;;;5073659;28;20052;-73
2021/05/11 00:14:11;;;;;;;11.90;4.20;;;486.70;1305.60;;;;;;5073835;28;20435;-70
2021/05/11 00:16:37;;;;;;;11.75;6.25;;;486.70;1331.20;;;;;;5073653;28;20023;-74
2021/05/11 00:19:07;;;;;;;14.40;6.95;;;486.60;1305.60;;;;;;5073546;28;20025;-68
2021/05/11 00:21:33;;;;;;;16.48;7.57;;;486.60;1305.60;;;;;;5073520;28;20074;-74
2021/05/11 00:23:59;;;;;;;13.95;6.78;;;486.70;1305.60;;;;;;5073565;28;20025;-74
2021/05/11 00:26:24;;;;;;;14.68;6.65;;;486.70;1305.60;;;;;;5073528;28;20024;-74
2021/05/11 00:28:50;;;;;;;13.15;6.15;;;486.70;1305.60;;;;;;5073768;28;20025;-67
2021/05/11 00:31:16;;;;;;;15.57;5.97;;;486.60;1331.20;;;;;;5073466;28;20492;-67
2021/05/11 00:33:42;;;;;;;9.30;5.50;;;486.60;1331.20;;;;;;5073616;28;20116;-67
2021/05/11 00:36:08;;;;;;;13.07;5.63;;;486.60;1305.60;;;;;;5073741;28;20492;-74
2021/05/11 00:38:34;;;;;;;14.75;5.78;;;486.60;1305.60;;;;;;5073599;28;20043;-74
2021/05/11 00:41:00;;;;;;;14.18;5.32;;;486.60;1305.60;;;;;;5073339;28;20354;-74
2021/05/11 00:43:26;;;;;;;10.27;6.20;;;486.50;1305.60;;;;;;5072091;28;20027;-74
2021/05/11 00:45:52;;;;;;;14.32;6.07;;;486.60;1305.60;;;;;;5073585;28;20047;-73
2021/05/11 00:48:18;;;;;;;16.95;6.40;;;486.60;1305.60;;;;;;5073345;28;20020;-74
2021/05/11 00:50:44;;;;;;;13.35;6.05;;;486.70;1305.60;;;;;;5073533;28;20033;-67
2021/05/11 00:53:11;;;;;;;14.50;7.20;;;486.70;1305.60;;;;;;5074879;28;20036;-74
2021/05/11 00:55:38;;;;;;;20.45;8.80;;;486.60;1305.60;;;;;;5077361;28;20028;-74
2021/05/11 00:58:05;;;;;;;15.75;8.45;;;486.60;1305.60;;;;;;5076062;28;20366;-74
2021/05/11 01:00:31;;;;;;;23.17;9.10;;;486.60;1305.60;;;;;;5077271;28;20149;-73
2021/05/11 01:02:57;;;;;;;18.92;9.30;;;486.50;1331.20;;;;;;5077565;28;20035;-74
2021/05/11 01:05:23;;;;;;;18.55;9.15;;;486.50;1305.60;;;;;;5077573;28;20372;-74
2021/05/11 01:07:49;;;;;;;15.23;7.90;;;486.50;1305.60;;;;;;5077441;28;20031;-67
2021/05/11 01:10:15;;;;;;;15.57;7.80;;;486.40;1331.20;;;;;;5077089;28;20024;-67
2021/05/11 01:12:41;;;;;;;14.13;7.60;;;486.50;1305.60;;;;;;5076955;28;20135;-71
2021/05/11 01:15:07;;;;;;;13.93;6.10;;;486.40;1331.20;;;;;;5077046;28;20086;-69
2021/05/11 01:17:36;;;;;;;12.10;6.45;;;486.40;1305.60;;;;;;5077267;28;20024;-74
2021/05/11 01:20:05;;;;;;;12.35;6.13;;;486.40;1331.20;;;;;;5076926;28;20025;-75
2021/05/11 01:25:13;;;;;;;17.73;6.35;;;461.60;1331.20;;;;;;5077230;28;20465;-71
2021/05/11 01:46:38;;;;;;;10.23;5.90;;;461.60;1331.20;;;;;;5076829;28;20488;-73
2021/05/11 01:54:37;;;;;;;12.77;5.72;;;461.70;1305.60;;;;;;5076269;28;20033;-68
2021/05/11 02:23:53;;;;;;;4.78;2.65;;;461.40;1305.60;;;;;;5075946;28;20440;-73
2021/05/11 02:26:19;;;;;;;6.97;3.03;;;461.40;1305.60;;;;;;5075701;28;20055;-75
2021/05/11 02:28:45;;;;;;;9.23;2.97;;;461.30;1305.60;;;;;;5075685;28;20044;-67
2021/05/11 02:31:11;;;;;;;9.10;3.80;;;461.30;1305.60;;;;;;5091280;28;20039;-73
2021/05/11 02:33:37;;;;;;;10.85;3.95;;;461.20;1305.60;;;;;;5075829;28;20047;-74
2021/05/11 02:36:03;;;;;;;7.18;3.45;;;461.30;1305.60;;;;;;5075806;28;20480;-74
2021/05/11 02:38:29;;;;;;;6.70;3.53;;;461.30;1280.00;;;;;;5076056;28;20109;-73
2021/05/11 02:40:55;;;;;;;11.27;4.05;;;461.20;1280.00;;;;;;5075718;28;20477;-67
2021/05/11 02:43:26;;;;;;;10.82;4.40;;;461.20;1280.00;;;;;;5075442;28;20476;-68
2021/05/11 02:45:52;;;;;;;12.88;4.80;;;461.20;1280.00;;;;;;5075379;28;20490;-67
2021/05/11 02:48:18;;;;;;;12.43;5.10;;;461.20;1280.00;;;;;;5075604;28;20025;-74
2021/05/11 02:50:44;;;;;;;8.77;4.65;;;461.20;1280.00;;;;;;5075211;28;20399;-67
2021/05/11 02:53:10;;;;;;;13.40;5.00;;;461.20;1280.00;;;;;;5075173;28;20058;-75
2021/05/11 02:55:36;;;;;;;12.45;4.75;;;461.20;1280.00;;;;;;5075219;28;20081;-70
2021/05/11 02:58:02;;;;;;;10.95;4.63;;;461.20;1254.40;;;;;;5075845;28;20425;-75
2021/05/11 03:00:28;;;;;;;8.48;4.20;;;461.20;1280.00;;;;;;5075051;28;20032;-74
2021/05/11 03:02:55;;;;;;;8.63;4.25;;;461.20;1280.00;;;;;;5074946;28;20060;-74
2021/05/11 03:05:21;;;;;;;12.07;4.80;;;461.20;1254.40;;;;;;5075029;28;20436;-69
2021/05/11 03:07:48;;;;;;;9.32;4.88;;;461.20;1280.00;;;;;;5074891;28;20064;-67
2021/05/11 03:10:16;;;;;;;11.43;4.43;;;461.20;1280.00;;;;;;5074869;28;20033;-67
2021/05/11 03:12:43;;;;;;;9.02;4.32;;;461.10;1254.40;;;;;;5074568;28;20048;-67
2021/05/11 03:15:09;;;;;;;8.38;4.13;;;461.20;1254.40;;;;;;5074353;28;20029;-74
2021/05/11 03:17:37;;;;;;;10.50;4.07;;;461.10;1228.80;;;;;;5074962;28;20385;-75
2021/05/11 03:20:04;;;;;;;12.35;4.63;;;461.10;1254.40;;;;;;5074592;28;20480;-69
2021/05/11 03:22:30;;;;;;;8.20;3.90;;;461.10;1254.40;;;;;;5074676;28;20056;-74
2021/05/11 03:24:57;;;;;;;10.07;4.15;;;461.10;1228.80;;;;;;5074598;28;20040;-75
2021/05/11 03:27:23;;;;;;;7.60;3.72;;;460.90;1228.80;;;;;;5074560;28;20024;-71
2021/05/11 03:29:49;;;;;;;9.82;4.75;;;460.90;1228.80;;;;;;5074429;28;20031;-66
2021/05/11 03:32:15;;;;;;;15.35;4.90;;;460.90;1228.80;;;;;;5074359;28;20036;-67
2021/05/11 03:34:41;;;;;;;10.20;4.63;;;460.90;1254.40;;;;;;5074489;28;20040;-75
2021/05/11 03:37:07;;;;;;;13.80;5.00;;;461.00;1254.40;;;;;;5074666;28;20054;-74
2021/05/11 03:39:37;;;;;;;16.70;4.38;;;460.90;1254.40;;;;;;5074299;28;20024;-74
2021/05/11 03:42:11;;;;;;;9.55;4.55;;;460.90;1228.80;;;;;;5074261;28;20028;-74
2021/05/11 03:44:39;;;;;;;13.20;4.93;;;460.90;1228.80;;;;;;5074246;28;20027;-74
2021/05/11 03:47:05;;;;;;;8.70;5.00;;;460.90;1254.40;;;;;;5074162;28;20020;-67
2021/05/11 03:49:31;;;;;;;8.75;4.28;;;460.90;1280.00;;;;;;5074084;28;20054;-70
2021/05/11 03:51:57;;;;;;;11.35;4.60;;;460.90;1280.00;;;;;;5074355;28;20024;-67
2021/05/11 03:54:23;;;;;;;35.88;5.78;;;461.00;1254.40;;;;;;5089643;28;20037;-74
2021/05/11 03:56:49;;;;;;;8.65;4.22;;;460.90;1254.40;;;;;;5073952;28;20021;-75
2021/05/11 03:59:15;;;;;;;10.77;4.55;;;460.90;1254.40;;;;;;5073943;28;20024;-67
2021/05/11 04:01:41;;;;;;;10.82;4.95;;;461.00;1254.40;;;;;;5074036;28;20029;-70
2021/05/11 04:04:07;;;;;;;9.40;4.78;;;461.00;1254.40;;;;;;5074109;28;20047;-70
2021/05/11 04:06:33;;;;;;;13.90;4.90;;;461.00;1254.40;;;;;;5074156;28;20032;-74
2021/05/11 04:10:01;;;;;;;7.85;4.55;;;461.00;1280.00;;;;;;5074037;28;20028;-74
2021/05/11 04:17:22;;;;;;;12.32;4.82;;;460.90;1254.40;;;;;;5074034;28;20525;-68
2021/05/11 04:19:48;;;;;;;11.30;5.10;;;460.90;1280.00;;;;;;5073878;28;20028;-74
2021/05/11 04:22:14;;;;;;;10.00;5.07;;;460.90;1254.40;;;;;;5073555;28;20024;-74
2021/05/11 04:24:40;;;;;;;9.45;4.45;;;460.90;1280.00;;;;;;5073677;28;20021;-74
2021/05/11 04:27:06;;;;;;;9.95;4.35;;;460.90;1280.00;;;;;;5073120;28;20457;-67
2021/05/11 04:29:34;;;;;;;10.25;4.57;;;460.90;1280.00;;;;;;5073329;28;20039;-73
2021/05/11 04:32:00;;;;;;;11.13;4.38;;;461.00;1280.00;;;;;;5073084;28;20145;-75
2021/05/11 04:34:25;;;;;;;8.13;4.75;;;461.00;1254.40;;;;;;5073650;28;20550;-74
2021/05/11 04:36:51;;;;;;;11.73;4.43;;;461.00;1254.40;;;;;;5073701;28;20362;-68
2021/05/11 04:39:17;;;;;;;9.25;4.40;;;461.10;1254.40;;;;;;5073351;28;20025;-74
2021/05/11 04:41:43;;;;;;;15.48;5.07;;;461.10;1280.00;;;;;;5073834;28;20024;-74
2021/05/11 04:44:09;;;;;;;9.82;5.03;;;461.10;1254.40;;;;;;5073376;28;20013;-74
2021/05/11 04:46:57;;;;;;;10.07;4.90;;;461.00;1254.40;;;;;;5073573;28;20030;-74
2021/05/11 04:49:25;;;;;;;11.05;5.55;;;461.10;1280.00;;;;;;5073437;28;20016;-74
2021/05/11 04:51:51;;;;;;;13.63;5.70;;;461.10;1280.00;;;;;;5073531;28;20406;-73
2021/05/11 04:54:18;;;;;;;11.43;5.28;;;461.10;1280.00;;;;;;5073195;28;20058;-74
2021/05/11 04:56:46;;;;;;;11.63;5.47;;;461.20;1280.00;;;;;;5073525;28;20028;-67
2021/05/11 04:59:12;;;;;;;10.35;5.40;;;461.20;1280.00;;;;;;5073220;28;20074;-73
2021/05/11 05:01:39;;;;;;;11.15;4.93;;;461.30;1280.00;;;;;;5073187;28;20070;-67
2021/05/11 05:04:08;;;;;;;9.38;4.43;;;461.30;1254.40;;;;;;5073138;28;20024;-73
2021/05/11 05:06:34;;;;;;;8.82;4.32;;;461.30;1254.40;;;;;;5073409;28;20070;-74
2021/05/11 05:09:00;;;;;;;6.60;3.20;;;461.30;1254.40;;;;;;5073080;28;20426;-74
2021/05/11 05:11:26;;;;;;;7.38;2.55;;;461.40;1254.40;;;;;;5073103;28;20101;-74
2021/05/11 05:13:52;;;;;;;5.25;2.38;;;461.50;1254.40;;;;;;5072954;28;20059;-66
2021/05/11 05:16:18;;;;;;;15.75;2.75;;;461.40;1228.80;;;;;;5073117;28;20066;-67
2021/05/11 05:18:44;;;;;;;7.40;2.33;;;461.40;1254.40;;;;;;5073071;28;20029;-67
2021/05/11 05:21:09;;;;;;;6.57;2.47;;;461.50;1254.40;;;;;;5073296;28;20027;-71
2021/05/11 05:23:44;;;;;;;6.40;1.90;;;461.50;1254.40;;;;;;5073333;28;20479;-73
2021/05/11 05:26:11;;;;;;;5.07;1.60;;;461.50;1228.80;;;;;;5072998;28;20102;-68
2021/05/11 05:28:42;;;;;;;4.00;2.10;;;461.60;1228.80;;;;;;5072961;28;20043;-74
2021/05/11 05:31:08;;;;;;;7.97;1.25;;;461.60;1228.80;;;;;;5073033;28;20031;-67
2021/05/11 05:33:37;;;;;;;5.97;1.75;;;461.70;1228.80;;;;;;5072876;28;20036;-72
2021/05/11 05:36:04;;;;;;;8.23;1.67;;;461.70;1228.80;;;;;;5073180;28;20364;-67
2021/05/11 05:38:30;;;;;;;5.97;1.60;;;486.40;1203.20;;;;;;5073206;28;20495;-74
2021/05/11 05:41:00;;;;;;;5.35;1.70;;;486.40;1203.20;;;;;;5076532;28;20473;-73
2021/05/11 05:43:26;;;;;;;6.03;1.90;;;486.50;1203.20;;;;;;5076448;28;20020;-73
2021/05/11 05:45:53;;;;;;;7.13;2.00;;;486.50;1203.20;;;;;;5076478;28;20070;-73
2021/05/11 05:48:20;;;;;;;7.10;1.80;;;486.50;1177.60;;;;;;5076693;28;20483;-73
2021/05/11 05:50:48;;;;;;;4.75;1.75;;;486.60;1203.20;;;;;;5076405;28;20021;-67
2021/05/11 05:53:21;;;;;;;6.80;1.33;;;486.70;1203.20;;;;;;5083923;28;20085;-74
2021/05/11 05:55:48;;;;;;;5.72;1.85;;;486.70;1177.60;;;;;;5096888;28;20476;-73
2021/05/11 05:58:14;;;;;;;9.30;1.75;;;486.80;1177.60;;;;;;5096072;28;20039;-67
2021/05/11 06:00:40;;;;;;;8.10;1.90;;;486.80;1203.20;;;;;;5093131;28;20028;-72
2021/05/11 06:03:08;;;;;;;4.50;1.58;;;486.90;1177.60;;;;;;5095996;28;20035;-66
2021/05/11 06:05:34;;;;;;;4.57;1.67;;;487.00;1203.20;;;;;;5096411;28;20082;-74
2021/05/11 06:08:00;;;;;;;5.38;1.77;;;487.10;1203.20;;;;;;5096623;28;20476;-73
2021/05/11 06:10:29;;;;;;;8.00;2.03;;;487.20;1177.60;;;;;;5096231;28;20020;-72
2021/05/11 06:13:04;;;;;;;11.63;1.85;;;487.20;1177.60;;;;;;5095731;28;20052;-73
2021/05/11 06:18:15;;;;;;;8.77;2.15;;;512.00;1177.60;;;;;;5094994;28;20204;-73
2021/05/11 06:20:40;;;;;;;6.72;1.83;;;512.20;1152.00;;;;;;5094597;28;20292;-74
2021/05/11 06:23:06;;;;;;;3.78;1.45;;;512.30;1152.00;;;;;;5095785;28;20020;-73
2021/05/11 06:25:32;;;;;;;4.65;1.95;;;512.50;1126.40;;;;;;5095572;28;20024;-72
2021/05/11 06:27:59;;;;;;;7.57;1.83;;;512.60;1152.00;;;;;;5095441;28;20020;-72
2021/05/11 06:30:25;;;;;;;9.32;1.83;;;512.80;1126.40;;;;;;5095815;28;20031;-72
2021/05/11 06:32:51;;;;;;;19.25;2.53;;;537.60;1126.40;;;;;;5095643;28;20035;-72
2021/05/11 06:35:17;;;;;;;9.10;1.98;;;537.80;1152.00;;;;;;5095415;28;20051;-73
2021/05/11 06:37:42;;;;;;;8.45;1.77;;;538.00;1126.40;;;;;;5095398;28;20020;-72
2021/05/11 06:40:09;;;;;;;5.72;1.65;;;538.10;1126.40;;;;;;5095285;28;20028;-74
2021/05/11 06:42:38;;;;;;;5.00;1.95;;;538.20;1126.40;;;;;;5095430;28;20392;-74
2021/05/11 06:45:32;;;;;;;6.45;2.35;;;538.20;1100.80;;;;;;5095470;28;20479;-75
2021/05/11 06:48:08;;;;;;;6.15;2.10;;;538.40;1075.20;;;;;;5094457;28;20547;-74
2021/05/11 06:50:41;;;;;;;6.75;1.70;;;538.50;1075.20;;;;;;5094361;28;20066;-74
2021/05/11 06:53:12;;;;;;;11.07;1.95;;;563.20;1100.80;;;;;;5095493;28;20369;-73
2021/05/11 06:55:41;;;;;;;3.08;1.75;;;563.40;1126.40;;;;;;5094984;28;20376;-72
2021/05/11 06:58:09;;;;;;;9.07;2.45;;;563.60;1100.80;;;;;;5095193;28;20349;-68
2021/05/11 07:00:35;;;;;;;6.70;1.98;;;563.60;1075.20;;;;;;5094414;28;20034;-72
2021/05/11 07:03:01;;;;;;;6.38;1.85;;;563.70;1075.20;;;;;;5095097;28;20032;-69
2021/05/11 07:05:31;;;;;;;5.95;1.80;;;563.70;1075.20;;;;;;5095097;28;20527;-67
2021/05/11 07:08:18;;;;;;;10.07;1.90;;;563.80;1075.20;;;;;;5094098;28;20384;-72
2021/05/11 07:10:53;;;;;;;6.47;1.90;;;563.90;1075.20;;;;;;5093759;28;20388;-71
2021/05/11 07:13:19;;;;;;;8.63;2.10;;;564.10;1100.80;;;;;;5095111;28;20040;-72
2021/05/11 07:15:46;;;;;;;4.97;1.85;;;564.10;1049.60;;;;;;5094936;28;20358;-71
2021/05/11 07:18:14;;;;;;;4.63;2.08;;;588.80;1075.20;;;;;;5093675;28;20043;-68
2021/05/11 07:20:42;;;;;;;6.72;2.10;;;588.80;1100.80;;;;;;5093609;28;20052;-72
2021/05/11 07:23:09;;;;;;;11.00;2.38;;;588.80;1100.80;;;;;;5094234;28;20461;-71
2021/05/11 07:25:43;;;;;;;9.95;1.95;;;589.00;1100.80;;;;;;5092916;28;20170;-68
2021/05/11 07:28:35;;;;;;;4.43;1.80;;;589.10;1075.20;;;;;;5094754;28;20028;-71
2021/05/11 07:31:04;;;;;;;4.85;1.98;;;589.10;1075.20;;;;;;5094636;28;20028;-71
2021/05/11 07:33:40;;;;;;;4.80;2.05;;;589.20;1100.80;;;;;;5093999;28;20043;-69
2021/05/11 07:36:07;;;;;;;8.50;2.20;;;589.30;1075.20;;;;;;5091868;28;20538;-70
2021/05/11 07:38:34;;;;;;;7.47;1.98;;;589.30;1049.60;;;;;;5094067;28;20483;-73
2021/05/11 07:41:00;;;;;;;5.95;2.20;;;589.40;1100.80;;;;;;5093985;28;20016;-71
2021/05/11 07:43:27;;;;;;;7.55;2.75;;;589.50;1100.80;;;;;;5094072;28;20016;-73
2021/05/11 08:02:02;;;;;;;5.30;2.30;;;614.40;1075.20;;;;;;5094143;28;20066;-74
2021/05/11 08:04:45;;;;;;;6.25;2.30;;;614.40;1075.20;;;;;;5094434;28;20027;-73
2021/05/11 08:15:09;;;;;;;8.23;2.10;;;614.70;1100.80;;;;;;5092804;28;20046;-73
2021/05/11 08:17:39;;;;;;;10.30;2.28;;;614.80;1075.20;;;;;;5091048;28;20035;-73
2021/05/11 08:22:56;;;;;;;11.38;2.40;;;614.80;1075.20;;;;;;5092506;28;20028;-74
2021/05/11 08:28:11;;;;;;;11.57;2.88;;;614.80;1075.20;;;;;;5092567;28;20069;-68
2021/05/11 08:30:37;;;;;;;8.70;2.50;;;614.90;1075.20;;;;;;5092529;28;20383;-74
2021/05/11 08:33:03;;;;;;;10.05;2.00;;;614.90;1024.00;;;;;;5092671;28;20461;-73
2021/05/11 08:35:29;;;;;;;9.25;2.28;;;614.90;1075.20;;;;;;5094211;28;20023;-74
2021/05/11 08:37:55;;;;;;;6.15;2.30;;;615.00;1075.20;;;;;;5093582;28;20032;-73
2021/05/11 08:40:22;;;;;;;9.50;2.58;;;615.00;1075.20;;;;;;5093656;28;20028;-74
2021/05/11 08:42:48;;;;;;;6.75;2.50;;;615.00;1049.60;;;;;;5093650;28;20103;-74
2021/05/11 08:45:15;;;;;;;10.52;2.55;;;615.00;1075.20;;;;;;5094341;28;20052;-74
2021/05/11 08:47:52;;;;;;;7.93;2.28;;;615.10;1075.20;;;;;;5093811;28;20032;-74
2021/05/11 08:50:24;;;;;;;5.68;2.33;;;615.10;1075.20;;;;;;5093621;28;20031;-73
2021/05/11 09:07:31;;;;;;;7.00;2.28;;;640.00;1024.00;;;;;;5093601;28;20089;-73
2021/05/11 09:32:34;;;;;;;9.32;2.50;;;640.20;1024.00;;;;;;5097088;28;20024;-73
2021/05/11 10:39:16;;;;;;;13.63;2.65;;;665.60;1024.00;;;;;;5094185;28;20047;-75
2021/05/11 10:42:08;;;;;;;5.72;2.55;;;665.60;1024.00;;;;;;5094630;28;20452;-76
2021/05/11 10:48:24;;;;;;;23.05;2.90;;;665.70;1024.00;;;;;;5073732;28;20031;-75
2021/05/11 10:51:06;;;;;;;8.60;2.03;;;666.00;972.80;;;;;;5092874;28;20023;-74
2021/05/11 10:53:39;;;;;;;7.78;2.20;;;666.00;1049.60;;;;;;5093017;28;20036;-75
2021/05/11 10:59:11;;;;;;;7.40;2.25;;;666.10;998.40;;;;;;5087028;28;19904;-74
2021/05/11 11:01:37;;;;;;;10.20;2.35;;;666.00;972.80;;;;;;5094264;28;20030;-74
2021/05/11 11:04:20;;;;;;;3.90;1.95;;;666.00;998.40;;;;;;5094655;28;20105;-75
2021/05/11 11:07:14;;;;;;;7.37;2.27;;;666.00;1024.00;;;;;;5094714;28;20081;-72
2021/05/11 11:09:53;;;;;;;7.60;2.28;;;666.00;998.40;;;;;;5091046;28;20059;-75
2021/05/11 11:12:21;;;;;;;10.02;2.50;;;666.10;1049.60;;;;;;5093552;28;20077;-72
2021/05/11 11:14:47;;;;;;;10.45;2.90;;;666.30;998.40;;;;;;5093588;28;20055;-68
2021/05/11 11:17:15;;;;;;;8.70;2.33;;;666.20;998.40;;;;;;5094513;28;20025;-74
2021/05/11 11:19:48;;;;;;;8.25;2.50;;;666.30;1024.00;;;;;;5095485;28;20032;-77
2021/05/11 11:25:01;;;;;;;7.22;2.15;;;666.40;1075.20;;;;;;5095823;28;20115;-74
2021/05/11 11:27:29;;;;;;;6.05;1.88;;;666.50;972.80;;;;;;5095123;28;20028;-74
2021/05/11 11:30:24;;;;;;;8.60;2.17;;;666.40;998.40;;;;;;5094828;28;20020;-74
2021/05/11 11:32:50;;;;;;;11.45;2.50;;;666.40;972.80;;;;;;5077717;28;20519;-75
2021/05/11 11:35:17;;;;;;;12.30;2.50;;;666.40;947.20;;;;;;5095661;28;20040;-75
2021/05/11 11:37:46;;;;;;;6.60;2.75;;;666.30;947.20;;;;;;5094724;28;20427;-74
2021/05/11 11:40:15;;;;;;;6.07;2.50;;;666.50;1024.00;;;;;;5094969;28;20023;-74
2021/05/11 11:42:43;;;;;;;8.40;2.38;;;691.20;1049.60;;;;;;5094716;28;20020;-75
2021/05/11 11:45:21;;;;;;;8.85;2.53;;;691.40;972.80;;;;;;5093245;28;20027;-68
2021/05/11 11:48:00;;;;;;;12.20;2.65;;;691.40;921.60;;;;;;5094660;28;20020;-70
2021/05/11 11:50:28;;;;;;;7.47;2.13;;;691.40;998.40;;;;;;5094681;28;20020;-71
2021/05/11 11:57:56;;;;;;;5.53;2.20;;;691.50;972.80;;;;;;5094391;28;20039;-74
2021/05/11 12:00:25;;;;;;;9.05;2.42;;;691.50;972.80;;;;;;5094885;28;20396;-73
2021/05/11 12:03:00;;;;;;;9.77;2.40;;;691.60;947.20;;;;;;5094619;28;20397;-74
2021/05/11 12:05:54;;;;;;;5.57;1.80;;;691.50;947.20;;;;;;5094286;28;20028;-74
2021/05/11 12:08:30;;;;;;;7.75;1.95;;;691.70;921.60;;;;;;5091345;28;20039;-75
2021/05/11 12:11:08;;;;;;;4.72;2.10;;;691.60;998.40;;;;;;5094370;28;20027;-75
2021/05/11 12:13:36;;;;;;;12.55;2.70;;;691.70;947.20;;;;;;5093828;28;20052;-74
2021/05/11 12:16:24;;;;;;;7.65;2.17;;;691.80;921.60;;;;;;5094155;28;20055;-68
2021/05/11 12:19:10;;;;;;;7.47;2.03;;;691.80;921.60;;;;;;5094174;28;20058;-74
2021/05/11 12:21:53;;;;;;;9.05;2.17;;;691.90;870.40;;;;;;5094107;28;20018;-74
2021/05/11 12:24:24;;;;;;;8.93;2.53;;;691.90;870.40;;;;;;5092589;28;20048;-74
2021/05/11 12:26:51;;;;;;;7.65;2.10;;;692.00;870.40;;;;;;5093702;28;20021;-75
2021/05/11 12:29:19;;;;;;;4.88;1.95;;;692.10;896.00;;;;;;5093897;28;20472;-73
2021/05/11 12:31:49;;;;;;;8.90;2.17;;;692.10;870.40;;;;;;5093635;28;20384;-73
2021/05/11 12:34:21;;;;;;;10.57;2.80;;;692.00;870.40;;;;;;5093510;28;20100;-74
2021/05/11 12:36:52;;;;;;;14.85;2.58;;;692.10;870.40;;;;;;5093219;28;20016;-74
2021/05/11 12:42:15;;;;;;;18.63;3.30;;;716.80;896.00;;;;;;5093313;28;20373;-73
2021/05/11 12:44:40;;;;;;;6.25;1.92;;;716.80;844.80;;;;;;5091091;28;20455;-74
2021/05/11 12:47:08;;;;;;;4.75;1.60;;;716.90;819.20;;;;;;5093289;28;20063;-73
2021/05/11 12:49:34;;;;;;;5.55;2.40;;;716.80;844.80;;;;;;5091076;28;20434;-74
2021/05/11 12:52:01;;;;;;;7.82;1.92;;;716.90;844.80;;;;;;5092762;28;20104;-74
2021/05/11 12:54:36;;;;;;;7.93;2.10;;;716.90;870.40;;;;;;5093213;28;20093;-67
2021/05/11 13:26:00;;;;;;;9.82;2.28;;;717.20;844.80;;;;;;5093537;28;20392;-73
2021/05/11 13:28:32;;;;;;;12.02;2.33;;;717.30;870.40;;;;;;5093153;28;20032;-74
2021/05/11 13:36:31;;;;;;;7.28;2.20;;;717.20;844.80;;;;;;5093496;28;20034;-76
2021/05/11 13:38:57;;;;;;;8.48;2.50;;;717.20;870.40;;;;;;5093302;28;20388;-76
2021/05/11 13:41:22;;;;;;;5.65;2.25;;;717.20;870.40;;;;;;5093156;28;20021;-78
2021/05/11 13:43:48;;;;;;;8.45;2.50;;;717.40;844.80;;;;;;5093276;28;20051;-73
2021/05/11 13:46:14;;;;;;;3.53;2.33;;;717.40;870.40;;;;;;5092445;28;20019;-75
2021/05/11 13:48:44;;;;;;;6.47;2.70;;;717.40;896.00;;;;;;5091439;28;20442;-69
2021/05/11 13:51:19;;;;;;;6.18;2.42;;;717.50;844.80;;;;;;5093113;28;20103;-74
2021/05/11 13:53:48;;;;;;;7.20;2.00;;;717.50;844.80;;;;;;5093402;28;20543;-74
2021/05/11 13:56:22;;;;;;;5.68;2.25;;;717.50;819.20;;;;;;5092802;28;20069;-73
2021/05/11 14:01:58;;;;;;;6.63;2.15;;;717.50;819.20;;;;;;5095427;28;20073;-70
2021/05/11 14:04:25;;;;;;;9.88;2.60;;;717.50;819.20;;;;;;5096749;28;20032;-74
2021/05/11 14:06:51;;;;;;;11.15;2.00;;;717.60;844.80;;;;;;5095138;28;20035;-75
2021/05/11 14:09:17;;;;;;;5.55;2.45;;;717.50;870.40;;;;;;5095782;28;20473;-73
2021/05/11 14:11:43;;;;;;;7.45;2.40;;;717.50;870.40;;;;;;5096065;28;20464;-73
2021/05/11 14:14:13;;;;;;;9.05;2.20;;;717.50;819.20;;;;;;5096027;28;20080;-74
2021/05/11 14:16:42;;;;;;;8.88;2.03;;;717.50;819.20;;;;;;5093772;28;20511;-68
2021/05/11 14:19:09;;;;;;;17.10;3.30;;;717.50;793.60;;;;;;5094799;28;20027;-74
2021/05/11 14:21:34;;;;;;;3.88;2.10;;;717.60;819.20;;;;;;5096628;28;20026;-73
2021/05/11 14:24:02;;;;;;;10.55;2.20;;;717.60;819.20;;;;;;5096224;28;20150;-74
2021/05/11 14:26:29;;;;;;;4.63;2.40;;;717.60;819.20;;;;;;5095960;28;20077;-73
2021/05/11 14:28:59;;;;;;;4.30;1.98;;;717.60;819.20;;;;;;5095922;28;20027;-68
2021/05/11 14:31:26;;;;;;;7.85;2.72;;;717.50;793.60;;;;;;5096253;28;20031;-74
2021/05/11 14:33:53;;;;;;;8.85;2.15;;;717.60;819.20;;;;;;5095817;28;20028;-70
2021/05/11 14:36:20;;;;;;;10.75;2.30;;;717.60;870.40;;;;;;5095611;28;20038;-75
2021/05/11 14:38:46;;;;;;;9.80;2.08;;;717.60;844.80;;;;;;5096307;28;20026;-73
2021/05/11 14:41:14;;;;;;;10.20;2.00;;;717.60;844.80;;;;;;5095836;28;20024;-74
2021/05/11 14:43:41;;;;;;;8.55;2.17;;;717.60;844.80;;;;;;5095733;28;20419;-74
2021/05/11 14:46:09;;;;;;;5.32;1.90;;;717.60;844.80;;;;;;5095582;28;20028;-74
2021/05/11 14:48:35;;;;;;;8.82;2.10;;;717.60;870.40;;;;;;5095541;28;20024;-74
2021/05/11 14:51:02;;;;;;;6.32;2.15;;;717.60;844.80;;;;;;5095310;28;20028;-69
2021/05/11 14:53:30;;;;;;;8.45;2.10;;;717.50;870.40;;;;;;5093528;28;20093;-75
2021/05/11 14:55:56;;;;;;;5.50;2.00;;;717.50;870.40;;;;;;5093336;28;20063;-74
2021/05/11 14:58:22;;;;;;;7.75;2.38;;;717.50;870.40;;;;;;5093608;28;20095;-74
2021/05/11 15:00:48;;;;;;;4.95;2.03;;;717.50;844.80;;;;;;5093347;28;20538;-74
2021/05/11 15:03:14;;;;;;;9.15;2.17;;;717.50;844.80;;;;;;5093567;28;20020;-73
2021/05/11 15:05:41;;;;;;;4.22;1.90;;;717.50;844.80;;;;;;5092424;28;20040;-73
2021/05/11 15:08:08;;;;;;;9.38;2.33;;;717.50;844.80;;;;;;5094826;28;20027;-69
2021/05/11 15:10:35;;;;;;;5.68;1.88;;;717.50;819.20;;;;;;5095607;28;20397;-72
2021/05/11 15:13:01;;;;;;;3.97;1.95;;;717.50;844.80;;;;;;5094022;28;20096;-73
2021/05/11 15:15:28;;;;;;;9.65;2.13;;;717.50;870.40;;;;;;5095014;28;20039;-74
2021/05/11 15:20:21;;;;;;;19.95;3.25;;;717.50;870.40;;;;;;5094885;28;20062;-74
2021/05/11 15:22:51;;;;;;;13.05;2.60;;;717.50;870.40;;;;;;5094914;28;20105;-74
2021/05/11 15:25:19;;;;;;;9.30;2.50;;;717.50;870.40;;;;;;5094764;28;20040;-74
2021/05/11 15:27:45;;;;;;;16.73;3.10;;;717.60;844.80;;;;;;5094798;28;20499;-74
2021/05/11 15:30:12;;;;;;;15.40;2.65;;;717.60;844.80;;;;;;5095024;28;20032;-75
2021/05/11 15:32:55;;;;;;;30.75;3.83;;;717.60;870.40;;;;;;5094765;28;20052;-74
2021/05/11 15:35:31;;;;;;;19.10;2.90;;;717.60;870.40;;;;;;5094771;28;20089;-74
2021/05/11 15:37:59;;;;;;;14.30;2.50;;;717.60;896.00;;;;;;5094904;28;20024;-74
2021/05/11 15:40:28;;;;;;;33.05;3.67;;;717.50;870.40;;;;;;5094975;28;20027;-74
2021/05/11 15:42:56;;;;;;;18.98;3.22;;;717.50;896.00;;;;;;5094544;28;20104;-73
2021/05/11 15:45:23;;;;;;;15.90;2.85;;;717.50;870.40;;;;;;5094868;28;20135;-74
2021/05/11 15:47:55;;;;;;;19.25;2.47;;;717.50;896.00;;;;;;5094712;28;20389;-75
2021/05/11 15:50:26;;;;;;;7.90;2.42;;;717.50;870.40;;;;;;5094638;28;20439;-74
2021/05/11 15:52:53;;;;;;;6.43;1.98;;;717.50;896.00;;;;;;5094714;28;20392;-74
2021/05/11 15:55:20;;;;;;;6.45;2.58;;;717.50;870.40;;;;;;5094376;28;20025;-74
2021/05/11 15:57:46;;;;;;;10.48;2.50;;;717.40;870.40;;;;;;5094299;28;20110;-75
2021/05/11 16:00:12;;;;;;;7.57;2.63;;;717.40;870.40;;;;;;5094582;28;20097;-73
2021/05/11 16:02:38;;;;;;;10.55;2.40;;;717.40;870.40;;;;;;5094300;28;20469;-73
2021/05/11 16:05:08;;;;;;;24.92;2.88;;;717.30;870.40;;;;;;5094286;28;20120;-74
2021/05/11 16:07:35;;;;;;;24.15;3.15;;;717.30;870.40;;;;;;5094487;28;20035;-75
2021/05/11 16:10:05;;;;;;;21.90;2.80;;;717.40;896.00;;;;;;5094516;28;20020;-74
2021/05/11 16:12:32;;;;;;;29.40;2.90;;;717.20;870.40;;;;;;5093977;28;20048;-74
2021/05/11 16:14:59;;;;;;;9.63;2.60;;;717.20;870.40;;;;;;5093945;28;20036;-75
2021/05/11 16:17:25;;;;;;;10.35;2.30;;;717.20;844.80;;;;;;5094386;28;20469;-74
2021/05/11 16:19:51;;;;;;;21.20;3.05;;;717.20;844.80;;;;;;5094000;28;20059;-75
2021/05/11 16:22:17;;;;;;;17.05;3.15;;;717.20;870.40;;;;;;5094056;28;20016;-74
2021/05/11 16:24:43;;;;;;;24.08;2.92;;;717.20;870.40;;;;;;5094105;28;20036;-75
2021/05/11 16:27:09;;;;;;;12.68;2.38;;;717.10;870.40;;;;;;5094069;28;20020;-74
2021/05/11 16:29:35;;;;;;;6.20;1.95;;;717.00;844.80;;;;;;5093798;28;20039;-74
2021/05/11 16:32:04;;;;;;;15.68;2.70;;;717.00;844.80;;;;;;5093862;28;20134;-74
2021/05/11 16:34:31;;;;;;;8.32;2.08;;;716.90;844.80;;;;;;5094110;28;20047;-75
2021/05/11 16:37:01;;;;;;;27.42;3.90;;;692.10;844.80;;;;;;5093910;28;20484;-75